Narowal Weather



Narowal's Current Weather

Temprature 24.28o light rain

light rain

Rain: 0 %

Min Temprature21o
Max Temprature27o
Humidity83
Wind Speed7.7 m/h
Sun Rise06:05:34
Sun Set17:25:41
Current Time: 18-Oct-2019 16:56:19
Lat/Lon: 32.1, 74.87




Narowal's Geo Location



Narowal's Weather Forecast

Time Overall Temp Min Temp Max Temp Humidity Wind Speed Rain
18-Oct-2019 (Fri)
17:00:00 clear sky 23.030 23.030 29.712 30 3.13 m/h 0 %
20:00:00 clear sky 20.730 20.730 25.743 36 2.2 m/h 0 %
23:00:00 scattered clouds 19.590 19.590 22.929 48 2.03 m/h 0 %
19-Oct-2019 (Sat)
02:00:00 broken clouds 20.050 20.050 21.718 51 2.83 m/h 0 %
05:00:00 scattered clouds 20.208 20.208 20.208 51 2.96 m/h 0 %
08:00:00 clear sky 24.272 24.272 24.272 41 0.51 m/h 0 %
11:00:00 clear sky 31.160 31.160 31.160 25 2.09 m/h 0 %
14:00:00 clear sky 33.903 33.903 33.903 16 3.45 m/h 0 %
17:00:00 clear sky 29.914 29.914 29.914 20 1.44 m/h 0 %
20:00:00 clear sky 24.921 24.921 24.921 25 2.19 m/h 0 %
23:00:00 clear sky 22.194 22.194 22.194 33 1.49 m/h 0 %
20-Oct-2019 (Sun)
02:00:00 clear sky 20.827 20.827 20.827 36 1.47 m/h 0 %
05:00:00 clear sky 19.518 19.518 19.518 40 1.04 m/h 0 %
08:00:00 clear sky 24.004 24.004 24.004 34 1.14 m/h 0 %
11:00:00 few clouds 31.520 31.520 31.520 21 1.35 m/h 0 %
14:00:00 overcast clouds 33.213 33.213 33.213 14 2.73 m/h 0 %
17:00:00 overcast clouds 29.211 29.211 29.211 18 2.28 m/h 0 %
20:00:00 broken clouds 25.263 25.263 25.263 22 1.63 m/h 0 %
23:00:00 overcast clouds 22.929 22.929 22.929 27 1.57 m/h 0 %
21-Oct-2019 (Mon)
02:00:00 few clouds 21.406 21.406 21.406 30 2.05 m/h 0 %
05:00:00 few clouds 19.247 19.247 19.247 35 1.07 m/h 0 %
08:00:00 clear sky 23.552 23.552 23.552 30 1.5 m/h 0 %
11:00:00 clear sky 31.725 31.725 31.725 19 0.52 m/h 0 %
14:00:00 clear sky 33.188 33.188 33.188 13 3.18 m/h 0 %
17:00:00 clear sky 28.754 28.754 28.754 19 1.74 m/h 0 %
20:00:00 scattered clouds 24.353 24.353 24.353 23 1.11 m/h 0 %
23:00:00 scattered clouds 22.674 22.674 22.674 25 1.82 m/h 0 %
22-Oct-2019 (Tue)
02:00:00 clear sky 20.672 20.672 20.672 30 1.95 m/h 0 %
05:00:00 clear sky 18.556 18.556 18.556 36 0.84 m/h 0 %
08:00:00 clear sky 23.411 23.411 23.411 28 1.27 m/h 0 %
11:00:00 clear sky 32.115 32.115 32.115 17 1.11 m/h 0 %
14:00:00 clear sky 34.159 34.159 34.159 13 2.97 m/h 0 %
17:00:00 clear sky 29.659 29.659 29.659 17 1.49 m/h 0 %
20:00:00 clear sky 24.750 24.750 24.750 22 0.89 m/h 0 %
23:00:00 few clouds 22.452 22.452 22.452 26 1.99 m/h 0 %
23-Oct-2019 (Wed)
02:00:00 broken clouds 20.725 20.725 20.725 34 2.39 m/h 0 %
05:00:00 broken clouds 19.708 19.708 19.708 37 1.92 m/h 0 %
08:00:00 scattered clouds 23.543 23.543 23.543 32 2.82 m/h 0 %
11:00:00 few clouds 31.384 31.384 31.384 19 3.16 m/h 0 %
14:00:00 few clouds 34.351 34.351 34.351 13 3.06 m/h 0 %

Famous Cities (61)